sensor_id;sensor_type;location;lat;lon;timestamp;temperature;humidity
21807;DHT22;11065;50.786;7.840;2023-07-31T00:02:13;19.80;53.00
21807;DHT22;11065;50.786;7.840;2023-07-31T00:04:41;19.80;53.10
21807;DHT22;11065;50.786;7.840;2023-07-31T00:07:09;19.80;53.00
21807;DHT22;11065;50.786;7.840;2023-07-31T00:09:37;19.80;53.00
21807;DHT22;11065;50.786;7.840;2023-07-31T00:12:07;19.80;52.90
21807;DHT22;11065;50.786;7.840;2023-07-31T00:14:35;19.90;53.00
21807;DHT22;11065;50.786;7.840;2023-07-31T00:17:03;19.80;53.00
21807;DHT22;11065;50.786;7.840;2023-07-31T00:19:32;19.80;52.90
21807;DHT22;11065;50.786;7.840;2023-07-31T00:22:00;19.90;53.40
21807;DHT22;11065;50.786;7.840;2023-07-31T00:24:28;19.80;53.10
21807;DHT22;11065;50.786;7.840;2023-07-31T00:26:56;19.90;53.20
21807;DHT22;11065;50.786;7.840;2023-07-31T00:29:24;19.80;53.10
21807;DHT22;11065;50.786;7.840;2023-07-31T00:31:52;19.90;53.10
21807;DHT22;11065;50.786;7.840;2023-07-31T00:34:20;19.90;53.20
21807;DHT22;11065;50.786;7.840;2023-07-31T00:36:47;19.90;53.20
21807;DHT22;11065;50.786;7.840;2023-07-31T00:39:16;19.90;53.20
21807;DHT22;11065;50.786;7.840;2023-07-31T00:41:44;19.90;53.20
21807;DHT22;11065;50.786;7.840;2023-07-31T00:44:12;19.90;53.20
21807;DHT22;11065;50.786;7.840;2023-07-31T00:46:41;19.90;53.20
21807;DHT22;11065;50.786;7.840;2023-07-31T00:49:10;19.90;53.20
21807;DHT22;11065;50.786;7.840;2023-07-31T00:51:38;19.90;53.20
21807;DHT22;11065;50.786;7.840;2023-07-31T00:54:06;20.00;53.40
21807;DHT22;11065;50.786;7.840;2023-07-31T00:56:34;20.00;53.30
21807;DHT22;11065;50.786;7.840;2023-07-31T00:59:03;20.00;53.30
21807;DHT22;11065;50.786;7.840;2023-07-31T01:01:32;20.00;53.30
21807;DHT22;11065;50.786;7.840;2023-07-31T01:04:02;20.00;53.20
21807;DHT22;11065;50.786;7.840;2023-07-31T01:06:34;20.00;53.50
21807;DHT22;11065;50.786;7.840;2023-07-31T01:09:09;20.00;53.40
21807;DHT22;11065;50.786;7.840;2023-07-31T01:11:45;20.00;53.50
21807;DHT22;11065;50.786;7.840;2023-07-31T01:14:14;20.00;53.40
21807;DHT22;11065;50.786;7.840;2023-07-31T01:16:42;20.00;53.50
21807;DHT22;11065;50.786;7.840;2023-07-31T01:19:14;20.00;53.30
21807;DHT22;11065;50.786;7.840;2023-07-31T01:21:59;20.00;53.30
21807;DHT22;11065;50.786;7.840;2023-07-31T01:24:41;20.00;53.60
21807;DHT22;11065;50.786;7.840;2023-07-31T01:27:21;20.10;53.40
21807;DHT22;11065;50.786;7.840;2023-07-31T01:30:03;20.10;53.30
21807;DHT22;11065;50.786;7.840;2023-07-31T01:32:39;20.10;53.30
21807;DHT22;11065;50.786;7.840;2023-07-31T01:35:08;20.10;53.10
21807;DHT22;11065;50.786;7.840;2023-07-31T01:37:37;20.10;53.40
21807;DHT22;11065;50.786;7.840;2023-07-31T01:40:06;20.10;53.30
21807;DHT22;11065;50.786;7.840;2023-07-31T01:42:35;20.10;53.40
21807;DHT22;11065;50.786;7.840;2023-07-31T01:45:04;20.10;53.30
21807;DHT22;11065;50.786;7.840;2023-07-31T01:47:32;20.10;53.20
21807;DHT22;11065;50.786;7.840;2023-07-31T01:50:00;20.20;53.40
21807;DHT22;11065;50.786;7.840;2023-07-31T01:52:28;20.10;53.20
21807;DHT22;11065;50.786;7.840;2023-07-31T01:54:56;20.20;53.40
21807;DHT22;11065;50.786;7.840;2023-07-31T01:57:24;20.20;53.30
21807;DHT22;11065;50.786;7.840;2023-07-31T01:59:54;20.20;53.30
21807;DHT22;11065;50.786;7.840;2023-07-31T02:02:22;20.20;53.40
21807;DHT22;11065;50.786;7.840;2023-07-31T02:04:51;20.20;53.40
21807;DHT22;11065;50.786;7.840;2023-07-31T02:07:19;20.10;53.30
21807;DHT22;11065;50.786;7.840;2023-07-31T02:09:47;20.20;53.40
21807;DHT22;11065;50.786;7.840;2023-07-31T02:12:15;20.20;53.50
21807;DHT22;11065;50.786;7.840;2023-07-31T02:14:43;20.10;53.50
21807;DHT22;11065;50.786;7.840;2023-07-31T02:17:13;20.10;53.60
21807;DHT22;11065;50.786;7.840;2023-07-31T02:19:41;20.10;53.80
21807;DHT22;11065;50.786;7.840;2023-07-31T02:22:09;20.10;53.90
21807;DHT22;11065;50.786;7.840;2023-07-31T02:24:37;20.00;54.00
21807;DHT22;11065;50.786;7.840;2023-07-31T02:27:05;20.00;54.10
21807;DHT22;11065;50.786;7.840;2023-07-31T02:29:33;20.00;54.20
21807;DHT22;11065;50.786;7.840;2023-07-31T02:32:02;19.90;54.30
21807;DHT22;11065;50.786;7.840;2023-07-31T02:34:31;19.90;54.30
21807;DHT22;11065;50.786;7.840;2023-07-31T02:37:00;19.90;54.50
21807;DHT22;11065;50.786;7.840;2023-07-31T02:39:28;19.80;54.50
21807;DHT22;11065;50.786;7.840;2023-07-31T02:41:55;19.80;54.60
21807;DHT22;11065;50.786;7.840;2023-07-31T02:44:23;19.70;54.70
21807;DHT22;11065;50.786;7.840;2023-07-31T02:46:51;19.70;55.60
21807;DHT22;11065;50.786;7.840;2023-07-31T02:49:19;19.70;55.00
21807;DHT22;11065;50.786;7.840;2023-07-31T02:51:48;19.70;55.10
21807;DHT22;11065;50.786;7.840;2023-07-31T02:54:16;19.60;55.20
21807;DHT22;11065;50.786;7.840;2023-07-31T02:56:44;19.60;55.20
21807;DHT22;11065;50.786;7.840;2023-07-31T02:59:12;19.60;55.40
21807;DHT22;11065;50.786;7.840;2023-07-31T03:01:40;19.60;55.50
21807;DHT22;11065;50.786;7.840;2023-07-31T03:04:08;19.60;55.50
21807;DHT22;11065;50.786;7.840;2023-07-31T03:06:36;19.60;55.50
21807;DHT22;11065;50.786;7.840;2023-07-31T03:09:06;19.60;55.60
21807;DHT22;11065;50.786;7.840;2023-07-31T03:11:34;19.60;55.80
21807;DHT22;11065;50.786;7.840;2023-07-31T03:14:02;19.60;55.70
21807;DHT22;11065;50.786;7.840;2023-07-31T03:16:30;19.50;55.70
21807;DHT22;11065;50.786;7.840;2023-07-31T03:18:58;19.60;55.80
21807;DHT22;11065;50.786;7.840;2023-07-31T03:21:26;19.50;55.70
21807;DHT22;11065;50.786;7.840;2023-07-31T03:23:54;19.60;55.80
21807;DHT22;11065;50.786;7.840;2023-07-31T03:26:24;19.50;55.80
21807;DHT22;11065;50.786;7.840;2023-07-31T03:28:51;19.60;55.90
21807;DHT22;11065;50.786;7.840;2023-07-31T03:31:20;19.60;56.00
21807;DHT22;11065;50.786;7.840;2023-07-31T03:33:47;19.60;56.00
21807;DHT22;11065;50.786;7.840;2023-07-31T03:36:15;19.60;56.00
21807;DHT22;11065;50.786;7.840;2023-07-31T03:38:43;19.60;56.10
21807;DHT22;11065;50.786;7.840;2023-07-31T03:41:11;19.60;56.30
21807;DHT22;11065;50.786;7.840;2023-07-31T03:43:41;19.60;56.10
21807;DHT22;11065;50.786;7.840;2023-07-31T03:46:09;19.60;56.10
21807;DHT22;11065;50.786;7.840;2023-07-31T03:48:37;19.60;56.60
21807;DHT22;11065;50.786;7.840;2023-07-31T03:51:05;19.60;56.20
21807;DHT22;11065;50.786;7.840;2023-07-31T03:53:33;19.60;56.30
21807;DHT22;11065;50.786;7.840;2023-07-31T03:56:01;19.60;56.30
21807;DHT22;11065;50.786;7.840;2023-07-31T03:58:29;19.60;56.30
21807;DHT22;11065;50.786;7.840;2023-07-31T04:00:58;19.60;56.30
21807;DHT22;11065;50.786;7.840;2023-07-31T04:03:27;19.60;56.40
21807;DHT22;11065;50.786;7.840;2023-07-31T04:05:55;19.60;56.40
21807;DHT22;11065;50.786;7.840;2023-07-31T04:08:23;19.60;56.40
21807;DHT22;11065;50.786;7.840;2023-07-31T04:10:51;19.50;56.40
21807;DHT22;11065;50.786;7.840;2023-07-31T04:13:19;19.60;56.20
21807;DHT22;11065;50.786;7.840;2023-07-31T04:15:50;19.50;56.20
21807;DHT22;11065;50.786;7.840;2023-07-31T04:18:20;19.60;56.40
21807;DHT22;11065;50.786;7.840;2023-07-31T04:20:48;19.60;56.40
21807;DHT22;11065;50.786;7.840;2023-07-31T04:23:15;19.60;56.30
21807;DHT22;11065;50.786;7.840;2023-07-31T04:25:43;19.60;56.40
21807;DHT22;11065;50.786;7.840;2023-07-31T04:28:12;19.60;56.30
21807;DHT22;11065;50.786;7.840;2023-07-31T04:30:40;19.60;56.30
21807;DHT22;11065;50.786;7.840;2023-07-31T04:33:08;19.60;56.30
21807;DHT22;11065;50.786;7.840;2023-07-31T04:35:37;19.60;56.30
21807;DHT22;11065;50.786;7.840;2023-07-31T04:38:05;19.70;56.40
21807;DHT22;11065;50.786;7.840;2023-07-31T04:40:33;19.70;56.30
21807;DHT22;11065;50.786;7.840;2023-07-31T04:43:01;19.70;56.20
21807;DHT22;11065;50.786;7.840;2023-07-31T04:45:29;19.70;56.30
21807;DHT22;11065;50.786;7.840;2023-07-31T04:47:57;19.70;56.40
21807;DHT22;11065;50.786;7.840;2023-07-31T04:50:25;19.70;56.40
21807;DHT22;11065;50.786;7.840;2023-07-31T04:52:54;19.70;56.40
21807;DHT22;11065;50.786;7.840;2023-07-31T04:55:22;19.70;56.60
21807;DHT22;11065;50.786;7.840;2023-07-31T04:57:50;19.70;56.60
21807;DHT22;11065;50.786;7.840;2023-07-31T05:00:18;19.70;56.70
21807;DHT22;11065;50.786;7.840;2023-07-31T05:02:46;19.70;56.70
21807;DHT22;11065;50.786;7.840;2023-07-31T05:05:14;19.80;56.80
21807;DHT22;11065;50.786;7.840;2023-07-31T05:07:42;19.70;56.70
21807;DHT22;11065;50.786;7.840;2023-07-31T05:10:11;19.70;56.70
21807;DHT22;11065;50.786;7.840;2023-07-31T05:12:39;19.70;56.70
21807;DHT22;11065;50.786;7.840;2023-07-31T05:15:08;19.70;56.60
21807;DHT22;11065;50.786;7.840;2023-07-31T05:17:36;19.70;56.70
21807;DHT22;11065;50.786;7.840;2023-07-31T05:20:05;19.70;56.60
21807;DHT22;11065;50.786;7.840;2023-07-31T05:22:34;19.80;56.60
21807;DHT22;11065;50.786;7.840;2023-07-31T05:25:02;19.80;56.60
21807;DHT22;11065;50.786;7.840;2023-07-31T05:27:32;19.80;56.70
21807;DHT22;11065;50.786;7.840;2023-07-31T05:30:00;19.80;56.80
21807;DHT22;11065;50.786;7.840;2023-07-31T05:32:28;19.80;56.80
21807;DHT22;11065;50.786;7.840;2023-07-31T05:34:56;19.80;56.60
21807;DHT22;11065;50.786;7.840;2023-07-31T05:37:24;19.90;56.50
21807;DHT22;11065;50.786;7.840;2023-07-31T05:39:52;19.80;56.60
21807;DHT22;11065;50.786;7.840;2023-07-31T05:42:20;19.90;56.60
21807;DHT22;11065;50.786;7.840;2023-07-31T05:44:49;19.90;56.60
21807;DHT22;11065;50.786;7.840;2023-07-31T05:47:17;19.90;56.60
21807;DHT22;11065;50.786;7.840;2023-07-31T05:49:45;19.90;56.70
21807;DHT22;11065;50.786;7.840;2023-07-31T05:52:13;19.90;56.80
21807;DHT22;11065;50.786;7.840;2023-07-31T05:54:41;20.00;56.80
21807;DHT22;11065;50.786;7.840;2023-07-31T05:57:09;20.00;56.90
21807;DHT22;11065;50.786;7.840;2023-07-31T05:59:37;20.00;56.80
21807;DHT22;11065;50.786;7.840;2023-07-31T06:02:07;20.10;56.90
21807;DHT22;11065;50.786;7.840;2023-07-31T06:04:35;20.10;56.90
21807;DHT22;11065;50.786;7.840;2023-07-31T06:07:03;20.10;56.70
21807;DHT22;11065;50.786;7.840;2023-07-31T06:09:31;20.20;56.80
21807;DHT22;11065;50.786;7.840;2023-07-31T06:11:59;20.20;56.60
21807;DHT22;11065;50.786;7.840;2023-07-31T06:14:27;20.20;56.70
21807;DHT22;11065;50.786;7.840;2023-07-31T06:16:55;20.20;56.60
21807;DHT22;11065;50.786;7.840;2023-07-31T06:19:24;20.30;56.70
21807;DHT22;11065;50.786;7.840;2023-07-31T06:21:52;20.30;56.80
21807;DHT22;11065;50.786;7.840;2023-07-31T06:24:20;20.30;56.90
21807;DHT22;11065;50.786;7.840;2023-07-31T06:26:48;20.30;57.00
21807;DHT22;11065;50.786;7.840;2023-07-31T06:29:17;20.40;57.00
21807;DHT22;11065;50.786;7.840;2023-07-31T06:31:45;20.40;57.00
21807;DHT22;11065;50.786;7.840;2023-07-31T06:34:13;20.50;57.20
21807;DHT22;11065;50.786;7.840;2023-07-31T06:36:43;20.60;57.30
21807;DHT22;11065;50.786;7.840;2023-07-31T06:39:10;20.70;57.30
21807;DHT22;11065;50.786;7.840;2023-07-31T06:41:39;20.70;57.20
21807;DHT22;11065;50.786;7.840;2023-07-31T06:44:10;20.70;57.00
21807;DHT22;11065;50.786;7.840;2023-07-31T06:46:38;20.80;56.90
21807;DHT22;11065;50.786;7.840;2023-07-31T06:49:06;20.90;56.90
21807;DHT22;11065;50.786;7.840;2023-07-31T06:51:34;20.90;56.80
21807;DHT22;11065;50.786;7.840;2023-07-31T06:54:04;20.90;56.80
21807;DHT22;11065;50.786;7.840;2023-07-31T06:56:32;20.90;56.80
21807;DHT22;11065;50.786;7.840;2023-07-31T06:59:00;20.90;56.70
21807;DHT22;11065;50.786;7.840;2023-07-31T07:01:28;20.90;56.60
21807;DHT22;11065;50.786;7.840;2023-07-31T07:03:56;20.90;56.60
21807;DHT22;11065;50.786;7.840;2023-07-31T07:06:24;20.90;56.40
21807;DHT22;11065;50.786;7.840;2023-07-31T07:08:52;20.90;56.50
21807;DHT22;11065;50.786;7.840;2023-07-31T07:11:21;20.90;56.50
21807;DHT22;11065;50.786;7.840;2023-07-31T07:13:49;20.90;56.50
21807;DHT22;11065;50.786;7.840;2023-07-31T07:16:17;20.80;56.50
21807;DHT22;11065;50.786;7.840;2023-07-31T07:18:45;20.80;56.60
21807;DHT22;11065;50.786;7.840;2023-07-31T07:21:30;20.80;56.60
21807;DHT22;11065;50.786;7.840;2023-07-31T07:23:58;20.80;56.90
21807;DHT22;11065;50.786;7.840;2023-07-31T07:26:27;20.80;57.00
21807;DHT22;11065;50.786;7.840;2023-07-31T07:28:55;20.80;57.10
21807;DHT22;11065;50.786;7.840;2023-07-31T07:31:26;20.90;57.30
21807;DHT22;11065;50.786;7.840;2023-07-31T07:33:54;20.90;57.40
21807;DHT22;11065;50.786;7.840;2023-07-31T07:36:24;20.90;57.50
21807;DHT22;11065;50.786;7.840;2023-07-31T07:38:51;21.00;57.60
21807;DHT22;11065;50.786;7.840;2023-07-31T07:41:19;21.00;57.60
21807;DHT22;11065;50.786;7.840;2023-07-31T07:43:49;21.10;57.70
21807;DHT22;11065;50.786;7.840;2023-07-31T07:46:18;21.20;57.70
21807;DHT22;11065;50.786;7.840;2023-07-31T07:48:46;21.30;57.40
21807;DHT22;11065;50.786;7.840;2023-07-31T07:51:14;21.40;57.60
21807;DHT22;11065;50.786;7.840;2023-07-31T07:53:41;21.50;58.00
21807;DHT22;11065;50.786;7.840;2023-07-31T07:56:09;21.70;58.30
21807;DHT22;11065;50.786;7.840;2023-07-31T07:58:37;21.80;58.20
21807;DHT22;11065;50.786;7.840;2023-07-31T08:01:07;22.00;57.50
21807;DHT22;11065;50.786;7.840;2023-07-31T08:03:35;22.10;57.30
21807;DHT22;11065;50.786;7.840;2023-07-31T08:06:03;22.20;57.40
21807;DHT22;11065;50.786;7.840;2023-07-31T08:08:31;22.30;57.00
21807;DHT22;11065;50.786;7.840;2023-07-31T08:10:59;22.50;57.20
21807;DHT22;11065;50.786;7.840;2023-07-31T08:13:27;22.60;56.80
21807;DHT22;11065;50.786;7.840;2023-07-31T08:15:55;22.70;56.40
21807;DHT22;11065;50.786;7.840;2023-07-31T08:18:24;22.80;55.90
21807;DHT22;11065;50.786;7.840;2023-07-31T08:20:52;22.80;55.50
21807;DHT22;11065;50.786;7.840;2023-07-31T08:23:20;22.80;54.90
21807;DHT22;11065;50.786;7.840;2023-07-31T08:25:48;22.80;55.00
21807;DHT22;11065;50.786;7.840;2023-07-31T08:28:17;22.70;54.90
21807;DHT22;11065;50.786;7.840;2023-07-31T08:30:45;22.60;55.10
21807;DHT22;11065;50.786;7.840;2023-07-31T08:33:13;22.70;55.40
21807;DHT22;11065;50.786;7.840;2023-07-31T08:35:42;22.60;55.60
21807;DHT22;11065;50.786;7.840;2023-07-31T08:38:12;22.60;55.60
21807;DHT22;11065;50.786;7.840;2023-07-31T08:40:40;22.60;55.30
21807;DHT22;11065;50.786;7.840;2023-07-31T08:43:09;22.60;55.10
21807;DHT22;11065;50.786;7.840;2023-07-31T08:45:36;22.50;55.00
21807;DHT22;11065;50.786;7.840;2023-07-31T08:48:05;22.40;54.80
21807;DHT22;11065;50.786;7.840;2023-07-31T08:50:33;22.30;54.60
21807;DHT22;11065;50.786;7.840;2023-07-31T08:53:03;22.30;54.80
21807;DHT22;11065;50.786;7.840;2023-07-31T08:55:32;22.20;55.10
21807;DHT22;11065;50.786;7.840;2023-07-31T08:58:00;22.20;55.40
21807;DHT22;11065;50.786;7.840;2023-07-31T09:00:31;22.20;55.60
21807;DHT22;11065;50.786;7.840;2023-07-31T09:03:03;22.20;55.50
21807;DHT22;11065;50.786;7.840;2023-07-31T09:05:32;22.20;55.70
21807;DHT22;11065;50.786;7.840;2023-07-31T09:08:02;22.20;55.90
21807;DHT22;11065;50.786;7.840;2023-07-31T09:10:32;22.20;55.60
21807;DHT22;11065;50.786;7.840;2023-07-31T09:13:00;22.20;55.70
21807;DHT22;11065;50.786;7.840;2023-07-31T09:15:28;22.20;55.70
21807;DHT22;11065;50.786;7.840;2023-07-31T09:18:05;22.20;55.80
21807;DHT22;11065;50.786;7.840;2023-07-31T09:20:34;22.20;55.90
21807;DHT22;11065;50.786;7.840;2023-07-31T09:23:07;22.20;55.90
21807;DHT22;11065;50.786;7.840;2023-07-31T09:25:36;22.20;56.10
21807;DHT22;11065;50.786;7.840;2023-07-31T09:28:06;22.20;55.90
21807;DHT22;11065;50.786;7.840;2023-07-31T09:30:45;22.30;55.50
21807;DHT22;11065;50.786;7.840;2023-07-31T09:33:14;22.20;55.90
21807;DHT22;11065;50.786;7.840;2023-07-31T09:35:43;22.20;55.80
21807;DHT22;11065;50.786;7.840;2023-07-31T09:38:13;22.30;55.60
21807;DHT22;11065;50.786;7.840;2023-07-31T09:40:42;22.30;55.90
21807;DHT22;11065;50.786;7.840;2023-07-31T09:43:11;22.20;55.80
21807;DHT22;11065;50.786;7.840;2023-07-31T09:45:41;22.20;55.80
21807;DHT22;11065;50.786;7.840;2023-07-31T09:48:11;22.30;56.10
21807;DHT22;11065;50.786;7.840;2023-07-31T09:50:40;22.40;56.30
21807;DHT22;11065;50.786;7.840;2023-07-31T09:53:09;22.40;56.40
21807;DHT22;11065;50.786;7.840;2023-07-31T09:55:39;22.40;56.20
21807;DHT22;11065;50.786;7.840;2023-07-31T09:58:09;22.50;56.10
21807;DHT22;11065;50.786;7.840;2023-07-31T10:00:37;22.50;56.00
21807;DHT22;11065;50.786;7.840;2023-07-31T10:03:07;22.60;55.90
21807;DHT22;11065;50.786;7.840;2023-07-31T10:05:36;22.60;56.00
21807;DHT22;11065;50.786;7.840;2023-07-31T10:08:07;22.60;56.10
21807;DHT22;11065;50.786;7.840;2023-07-31T10:10:41;22.80;56.40
21807;DHT22;11065;50.786;7.840;2023-07-31T10:13:09;22.80;56.60
21807;DHT22;11065;50.786;7.840;2023-07-31T10:15:37;22.90;56.60
21807;DHT22;11065;50.786;7.840;2023-07-31T10:18:06;23.00;56.50
21807;DHT22;11065;50.786;7.840;2023-07-31T10:20:35;23.10;56.60
21807;DHT22;11065;50.786;7.840;2023-07-31T10:23:03;23.20;56.30
21807;DHT22;11065;50.786;7.840;2023-07-31T10:25:32;23.30;55.50
21807;DHT22;11065;50.786;7.840;2023-07-31T10:28:02;23.40;55.40
21807;DHT22;11065;50.786;7.840;2023-07-31T10:30:32;23.40;55.30
21807;DHT22;11065;50.786;7.840;2023-07-31T10:33:02;23.40;55.10
21807;DHT22;11065;50.786;7.840;2023-07-31T10:35:30;23.40;55.00
21807;DHT22;11065;50.786;7.840;2023-07-31T10:38:09;23.40;55.10
21807;DHT22;11065;50.786;7.840;2023-07-31T10:40:38;23.40;55.20
21807;DHT22;11065;50.786;7.840;2023-07-31T10:43:08;23.40;55.10
21807;DHT22;11065;50.786;7.840;2023-07-31T10:45:39;23.40;54.70
21807;DHT22;11065;50.786;7.840;2023-07-31T10:48:12;23.30;54.70
21807;DHT22;11065;50.786;7.840;2023-07-31T10:50:47;23.30;55.20
21807;DHT22;11065;50.786;7.840;2023-07-31T10:53:23;23.30;54.80
21807;DHT22;11065;50.786;7.840;2023-07-31T10:55:51;23.30;54.80
21807;DHT22;11065;50.786;7.840;2023-07-31T10:58:21;23.20;54.40
21807;DHT22;11065;50.786;7.840;2023-07-31T11:00:49;23.10;54.30
21807;DHT22;11065;50.786;7.840;2023-07-31T11:03:19;23.10;54.40
21807;DHT22;11065;50.786;7.840;2023-07-31T11:05:51;23.10;54.40
21807;DHT22;11065;50.786;7.840;2023-07-31T11:08:21;23.00;54.30
21807;DHT22;11065;50.786;7.840;2023-07-31T11:11:04;23.00;54.30
21807;DHT22;11065;50.786;7.840;2023-07-31T11:13:34;22.90;54.20
21807;DHT22;11065;50.786;7.840;2023-07-31T11:16:07;22.90;54.40
21807;DHT22;11065;50.786;7.840;2023-07-31T11:18:35;22.90;54.50
21807;DHT22;11065;50.786;7.840;2023-07-31T11:21:03;22.90;54.70
21807;DHT22;11065;50.786;7.840;2023-07-31T11:23:31;22.90;54.50
21807;DHT22;11065;50.786;7.840;2023-07-31T11:26:00;22.90;54.60
21807;DHT22;11065;50.786;7.840;2023-07-31T11:28:33;22.80;54.60
21807;DHT22;11065;50.786;7.840;2023-07-31T11:31:02;22.90;54.60
21807;DHT22;11065;50.786;7.840;2023-07-31T11:33:31;22.90;54.70
21807;DHT22;11065;50.786;7.840;2023-07-31T11:35:58;22.90;54.60
21807;DHT22;11065;50.786;7.840;2023-07-31T11:38:29;22.90;54.60
21807;DHT22;11065;50.786;7.840;2023-07-31T11:40:59;23.00;54.50
21807;DHT22;11065;50.786;7.840;2023-07-31T11:43:27;23.00;54.60
21807;DHT22;11065;50.786;7.840;2023-07-31T11:45:58;23.00;54.50
21807;DHT22;11065;50.786;7.840;2023-07-31T11:48:28;23.00;54.50
21807;DHT22;11065;50.786;7.840;2023-07-31T11:50:58;23.00;54.60
21807;DHT22;11065;50.786;7.840;2023-07-31T11:53:30;23.10;54.60
21807;DHT22;11065;50.786;7.840;2023-07-31T11:56:00;23.10;54.30
21807;DHT22;11065;50.786;7.840;2023-07-31T11:58:29;23.10;54.10
21807;DHT22;11065;50.786;7.840;2023-07-31T12:01:00;23.20;54.40
21807;DHT22;11065;50.786;7.840;2023-07-31T12:03:28;23.20;54.30
21807;DHT22;11065;50.786;7.840;2023-07-31T12:05:57;23.20;54.20
21807;DHT22;11065;50.786;7.840;2023-07-31T12:08:26;23.30;54.20
21807;DHT22;11065;50.786;7.840;2023-07-31T12:10:54;23.30;54.10
21807;DHT22;11065;50.786;7.840;2023-07-31T12:13:23;23.30;53.90
21807;DHT22;11065;50.786;7.840;2023-07-31T12:15:54;23.30;53.80
21807;DHT22;11065;50.786;7.840;2023-07-31T12:18:25;23.40;54.00
21807;DHT22;11065;50.786;7.840;2023-07-31T12:20:55;23.40;53.80
21807;DHT22;11065;50.786;7.840;2023-07-31T12:23:25;23.40;53.50
21807;DHT22;11065;50.786;7.840;2023-07-31T12:26:01;23.50;53.60
21807;DHT22;11065;50.786;7.840;2023-07-31T12:28:30;23.50;53.60
21807;DHT22;11065;50.786;7.840;2023-07-31T12:30:59;23.50;53.70
21807;DHT22;11065;50.786;7.840;2023-07-31T12:33:32;23.50;53.50
21807;DHT22;11065;50.786;7.840;2023-07-31T12:36:02;23.50;53.70
21807;DHT22;11065;50.786;7.840;2023-07-31T12:38:30;23.50;53.80
21807;DHT22;11065;50.786;7.840;2023-07-31T12:40:58;23.50;53.90
21807;DHT22;11065;50.786;7.840;2023-07-31T12:43:26;23.40;53.80
21807;DHT22;11065;50.786;7.840;2023-07-31T12:45:54;23.40;53.70
21807;DHT22;11065;50.786;7.840;2023-07-31T12:48:23;23.40;53.80
21807;DHT22;11065;50.786;7.840;2023-07-31T12:50:52;23.30;53.70
21807;DHT22;11065;50.786;7.840;2023-07-31T12:53:20;23.20;54.10
21807;DHT22;11065;50.786;7.840;2023-07-31T12:55:49;23.20;54.70
21807;DHT22;11065;50.786;7.840;2023-07-31T12:58:17;23.30;55.00
21807;DHT22;11065;50.786;7.840;2023-07-31T13:00:45;23.50;55.80
21807;DHT22;11065;50.786;7.840;2023-07-31T13:03:13;23.80;56.20
21807;DHT22;11065;50.786;7.840;2023-07-31T13:05:41;24.10;56.20
21807;DHT22;11065;50.786;7.840;2023-07-31T13:08:10;24.30;55.40
21807;DHT22;11065;50.786;7.840;2023-07-31T13:10:38;24.50;55.00
21807;DHT22;11065;50.786;7.840;2023-07-31T13:13:06;24.60;54.60
21807;DHT22;11065;50.786;7.840;2023-07-31T13:15:34;24.80;54.60
21807;DHT22;11065;50.786;7.840;2023-07-31T13:18:02;24.80;54.40
21807;DHT22;11065;50.786;7.840;2023-07-31T13:20:31;24.90;54.10
21807;DHT22;11065;50.786;7.840;2023-07-31T13:22:59;24.90;53.90
21807;DHT22;11065;50.786;7.840;2023-07-31T13:25:28;24.90;53.60
21807;DHT22;11065;50.786;7.840;2023-07-31T13:27:56;24.90;53.20
21807;DHT22;11065;50.786;7.840;2023-07-31T13:30:28;24.80;53.00
21807;DHT22;11065;50.786;7.840;2023-07-31T13:32:56;24.80;53.00
21807;DHT22;11065;50.786;7.840;2023-07-31T13:35:24;24.70;53.10
21807;DHT22;11065;50.786;7.840;2023-07-31T13:37:52;24.60;52.90
21807;DHT22;11065;50.786;7.840;2023-07-31T13:40:21;24.60;53.00
21807;DHT22;11065;50.786;7.840;2023-07-31T13:42:50;24.50;53.10
21807;DHT22;11065;50.786;7.840;2023-07-31T13:45:19;24.50;53.30
21807;DHT22;11065;50.786;7.840;2023-07-31T13:47:47;24.30;53.30
21807;DHT22;11065;50.786;7.840;2023-07-31T13:50:15;24.30;53.30
21807;DHT22;11065;50.786;7.840;2023-07-31T13:52:43;24.30;53.50
21807;DHT22;11065;50.786;7.840;2023-07-31T13:55:11;24.20;53.60
21807;DHT22;11065;50.786;7.840;2023-07-31T13:57:39;24.20;53.60
21807;DHT22;11065;50.786;7.840;2023-07-31T14:00:10;24.20;53.60
21807;DHT22;11065;50.786;7.840;2023-07-31T14:02:38;24.20;53.80
21807;DHT22;11065;50.786;7.840;2023-07-31T14:05:06;24.20;53.60
21807;DHT22;11065;50.786;7.840;2023-07-31T14:07:36;24.20;53.30
21807;DHT22;11065;50.786;7.840;2023-07-31T14:10:04;24.20;52.80
21807;DHT22;11065;50.786;7.840;2023-07-31T14:12:32;24.10;53.00
21807;DHT22;11065;50.786;7.840;2023-07-31T14:15:10;24.10;53.10
21807;DHT22;11065;50.786;7.840;2023-07-31T14:17:38;24.10;53.00
21807;DHT22;11065;50.786;7.840;2023-07-31T14:20:08;24.10;53.20
21807;DHT22;11065;50.786;7.840;2023-07-31T14:22:37;24.10;53.00
21807;DHT22;11065;50.786;7.840;2023-07-31T14:25:05;24.10;52.90
21807;DHT22;11065;50.786;7.840;2023-07-31T14:27:33;24.10;53.10
21807;DHT22;11065;50.786;7.840;2023-07-31T14:30:01;24.10;53.20
21807;DHT22;11065;50.786;7.840;2023-07-31T14:32:31;24.30;53.50
21807;DHT22;11065;50.786;7.840;2023-07-31T14:34:59;24.40;52.90
21807;DHT22;11065;50.786;7.840;2023-07-31T14:37:26;24.60;53.20
21807;DHT22;11065;50.786;7.840;2023-07-31T14:40:04;24.70;52.90
21807;DHT22;11065;50.786;7.840;2023-07-31T14:42:34;24.80;52.40
21807;DHT22;11065;50.786;7.840;2023-07-31T14:45:02;24.80;52.30
21807;DHT22;11065;50.786;7.840;2023-07-31T14:47:31;24.90;51.80
21807;DHT22;11065;50.786;7.840;2023-07-31T14:50:00;24.90;51.00
21807;DHT22;11065;50.786;7.840;2023-07-31T14:52:28;24.90;51.10
21807;DHT22;11065;50.786;7.840;2023-07-31T14:54:56;24.80;51.10
21807;DHT22;11065;50.786;7.840;2023-07-31T14:57:24;24.80;50.80
21807;DHT22;11065;50.786;7.840;2023-07-31T14:59:53;24.80;50.80
21807;DHT22;11065;50.786;7.840;2023-07-31T15:02:21;24.70;50.50
21807;DHT22;11065;50.786;7.840;2023-07-31T15:04:50;24.60;50.60
21807;DHT22;11065;50.786;7.840;2023-07-31T15:07:18;24.60;50.60
21807;DHT22;11065;50.786;7.840;2023-07-31T15:09:46;24.50;50.50
21807;DHT22;11065;50.786;7.840;2023-07-31T15:12:14;24.40;50.70
21807;DHT22;11065;50.786;7.840;2023-07-31T15:14:42;24.30;50.70
21807;DHT22;11065;50.786;7.840;2023-07-31T15:17:10;24.30;50.80
21807;DHT22;11065;50.786;7.840;2023-07-31T15:19:38;24.30;50.80
21807;DHT22;11065;50.786;7.840;2023-07-31T15:22:08;24.20;50.70
21807;DHT22;11065;50.786;7.840;2023-07-31T15:24:36;24.20;50.30
21807;DHT22;11065;50.786;7.840;2023-07-31T15:27:04;24.10;50.50
21807;DHT22;11065;50.786;7.840;2023-07-31T15:29:32;24.00;50.60
21807;DHT22;11065;50.786;7.840;2023-07-31T15:32:04;24.00;50.80
21807;DHT22;11065;50.786;7.840;2023-07-31T15:34:32;23.90;50.70
21807;DHT22;11065;50.786;7.840;2023-07-31T15:37:01;23.90;51.00
21807;DHT22;11065;50.786;7.840;2023-07-31T15:39:30;23.80;51.00
21807;DHT22;11065;50.786;7.840;2023-07-31T15:41:58;23.80;51.00